Time;durP1;ratioP1;P1;durP2;ratioP2;P2;SDS_P1;SDS_P2;PMS_P1;PMS_P2;Temp;Humidity;BMP_temperature;BMP_pressure;BME280_temperature;BME280_humidity;BME280_pressure;Samples;Min_cycle;Max_cycle;Signal;HPM_P1;HPM_P2
2023/08/08 00:02:15;;;;;;;7.15;3.50;;;;;;;;;;5036263;28;20411;-80
2023/08/08 00:04:41;;;;;;;7.63;3.58;;;;;;;;;;5035372;28;20099;-78
2023/08/08 00:07:07;;;;;;;11.43;3.75;;;;;;;;;;5034062;28;20038;-79
2023/08/08 00:09:34;;;;;;;7.25;3.83;;;;;;;;;;5036445;28;20527;-78
2023/08/08 00:12:00;;;;;;;7.55;3.30;;;;;;;;;;5035034;28;20456;-79
2023/08/08 00:14:26;;;;;;;8.93;3.60;;;;;;;;;;5035994;28;20109;-78
2023/08/08 00:16:52;;;;;;;9.10;3.72;;;;;;;;;;5035976;28;20045;-79
2023/08/08 00:19:18;;;;;;;8.60;3.63;;;;;;;;;;5034014;28;20403;-78
2023/08/08 00:21:44;;;;;;;9.35;4.25;;;;;;;;;;5036084;28;20041;-79
2023/08/08 00:24:10;;;;;;;6.47;3.50;;;;;;;;;;5035088;28;20048;-79
2023/08/08 00:26:36;;;;;;;8.63;4.05;;;;;;;;;;5036710;28;20111;-78
2023/08/08 00:29:02;;;;;;;7.20;3.63;;;;;;;;;;5034370;28;20049;-78
2023/08/08 00:31:28;;;;;;;9.90;3.67;;;;;;;;;;5033148;28;20034;-78
2023/08/08 00:33:54;;;;;;;7.55;3.70;;;;;;;;;;5033675;28;20073;-77
2023/08/08 00:36:20;;;;;;;8.77;3.92;;;;;;;;;;5034887;28;20099;-78
2023/08/08 00:38:48;;;;;;;8.25;3.92;;;;;;;;;;5032147;28;20041;-78
2023/08/08 00:41:14;;;;;;;9.88;4.18;;;;;;;;;;5033888;28;20048;-77
2023/08/08 00:43:40;;;;;;;7.13;3.60;;;;;;;;;;5032334;28;20041;-78
2023/08/08 00:46:06;;;;;;;8.13;3.95;;;;;;;;;;5010965;28;20048;-78
2023/08/08 00:48:33;;;;;;;10.25;4.78;;;;;;;;;;5032967;28;20041;-78
2023/08/08 00:51:00;;;;;;;10.38;4.10;;;;;;;;;;5033722;28;20038;-78
2023/08/08 00:53:28;;;;;;;11.15;4.10;;;;;;;;;;5033648;28;20037;-77
2023/08/08 00:55:54;;;;;;;8.93;3.30;;;;;;;;;;5034719;28;20049;-77
2023/08/08 00:58:20;;;;;;;10.18;4.13;;;;;;;;;;5034242;28;20113;-77
2023/08/08 01:00:46;;;;;;;10.48;4.20;;;;;;;;;;5034007;28;20099;-77
2023/08/08 01:03:12;;;;;;;8.20;3.83;;;;;;;;;;5031948;28;20053;-78
2023/08/08 01:05:42;;;;;;;8.95;4.22;;;;;;;;;;5033959;28;20045;-78
2023/08/08 01:08:08;;;;;;;13.43;4.38;;;;;;;;;;5034090;28;20049;-78
2023/08/08 01:10:42;;;;;;;10.23;4.30;;;;;;;;;;5032886;28;20041;-78
2023/08/08 01:13:11;;;;;;;8.75;4.50;;;;;;;;;;5031723;28;20515;-78
2023/08/08 01:15:38;;;;;;;9.60;4.40;;;;;;;;;;5034512;28;20050;-78
2023/08/08 01:18:05;;;;;;;10.70;4.05;;;;;;;;;;5031906;28;20042;-79
2023/08/08 01:20:33;;;;;;;7.38;3.58;;;;;;;;;;5032354;28;20480;-78
2023/08/08 01:23:10;;;;;;;8.73;4.20;;;;;;;;;;5032738;28;20125;-78
2023/08/08 01:25:36;;;;;;;12.77;4.80;;;;;;;;;;5032464;28;20041;-79
2023/08/08 01:28:05;;;;;;;10.48;4.10;;;;;;;;;;5030964;28;20041;-78
2023/08/08 01:30:31;;;;;;;9.57;4.40;;;;;;;;;;5033167;28;20088;-78
2023/08/08 01:32:57;;;;;;;8.85;4.60;;;;;;;;;;5031325;28;20103;-79
2023/08/08 01:35:25;;;;;;;9.60;4.07;;;;;;;;;;5035019;28;20053;-78
2023/08/08 01:37:54;;;;;;;9.20;4.30;;;;;;;;;;5033122;28;20049;-78
2023/08/08 01:40:21;;;;;;;8.10;4.00;;;;;;;;;;5031301;28;20099;-78
2023/08/08 01:42:48;;;;;;;9.15;4.47;;;;;;;;;;5025797;28;20083;-79
2023/08/08 01:45:16;;;;;;;8.93;4.80;;;;;;;;;;5031716;28;20423;-78
2023/08/08 01:47:42;;;;;;;10.60;5.15;;;;;;;;;;5028940;28;20049;-78
2023/08/08 01:50:09;;;;;;;9.43;4.30;;;;;;;;;;5031934;28;20117;-78
2023/08/08 01:52:35;;;;;;;9.43;4.80;;;;;;;;;;5032383;28;20044;-78
2023/08/08 01:55:01;;;;;;;8.40;4.97;;;;;;;;;;5033094;28;20073;-78
2023/08/08 01:57:28;;;;;;;11.18;4.90;;;;;;;;;;5032553;28;20193;-78
2023/08/08 01:59:54;;;;;;;11.32;5.05;;;;;;;;;;5032576;28;20046;-78
2023/08/08 02:02:20;;;;;;;8.68;4.88;;;;;;;;;;5033146;28;20038;-78
2023/08/08 02:04:46;;;;;;;8.68;5.22;;;;;;;;;;5031343;28;20132;-78
2023/08/08 02:07:12;;;;;;;10.70;5.35;;;;;;;;;;5032711;28;20056;-78
2023/08/08 02:09:38;;;;;;;10.98;5.13;;;;;;;;;;5032472;28;20068;-78
2023/08/08 02:12:04;;;;;;;8.90;4.90;;;;;;;;;;5014718;28;20061;-78
2023/08/08 02:14:30;;;;;;;11.43;5.13;;;;;;;;;;5034363;28;20057;-78
2023/08/08 02:16:56;;;;;;;10.25;5.00;;;;;;;;;;5032969;28;20045;-79
2023/08/08 02:19:22;;;;;;;9.00;5.00;;;;;;;;;;5032147;28;20091;-78
2023/08/08 02:21:49;;;;;;;10.05;5.00;;;;;;;;;;5032453;28;20045;-78
2023/08/08 02:24:15;;;;;;;6.93;4.75;;;;;;;;;;5023704;28;20125;-77
2023/08/08 02:26:41;;;;;;;9.93;5.05;;;;;;;;;;5020258;28;20049;-78
2023/08/08 02:29:07;;;;;;;8.55;5.20;;;;;;;;;;5033778;28;20048;-78
2023/08/08 02:31:33;;;;;;;11.30;4.97;;;;;;;;;;5036307;28;20044;-77
2023/08/08 02:33:59;;;;;;;10.55;5.10;;;;;;;;;;5036614;28;20495;-77
2023/08/08 02:36:25;;;;;;;10.88;5.57;;;;;;;;;;5035557;28;20049;-77
2023/08/08 02:38:53;;;;;;;8.35;4.88;;;;;;;;;;5033156;28;20087;-77
2023/08/08 02:41:20;;;;;;;10.18;4.90;;;;;;;;;;5029799;28;20514;-78
2023/08/08 02:43:46;;;;;;;10.48;4.63;;;;;;;;;;5034226;28;20045;-78
2023/08/08 02:46:12;;;;;;;9.90;5.10;;;;;;;;;;5036046;28;20056;-78
2023/08/08 02:48:38;;;;;;;11.70;5.28;;;;;;;;;;5036887;28;20048;-79
2023/08/08 02:51:04;;;;;;;10.55;5.05;;;;;;;;;;5036440;28;20042;-79
2023/08/08 02:53:30;;;;;;;11.20;5.55;;;;;;;;;;5037051;28;20046;-79
2023/08/08 02:55:56;;;;;;;14.93;5.30;;;;;;;;;;5034097;28;21002;-79
2023/08/08 02:58:22;;;;;;;12.88;4.80;;;;;;;;;;5035787;28;20045;-79
2023/08/08 03:00:49;;;;;;;10.63;5.47;;;;;;;;;;5037089;28;20084;-79
2023/08/08 03:03:15;;;;;;;11.07;4.95;;;;;;;;;;5037096;28;20491;-79
2023/08/08 03:05:41;;;;;;;9.75;4.85;;;;;;;;;;5036411;28;20047;-78
2023/08/08 03:08:07;;;;;;;10.52;4.63;;;;;;;;;;5036529;28;20088;-78
2023/08/08 03:10:33;;;;;;;12.52;4.85;;;;;;;;;;5035789;28;20041;-78
2023/08/08 03:12:59;;;;;;;9.32;4.97;;;;;;;;;;5028042;28;20057;-78
2023/08/08 03:15:25;;;;;;;12.15;5.43;;;;;;;;;;5035393;28;20041;-78
2023/08/08 03:17:51;;;;;;;12.60;4.75;;;;;;;;;;5034557;28;20049;-78
2023/08/08 03:20:17;;;;;;;13.10;5.10;;;;;;;;;;5036270;28;20057;-77
2023/08/08 03:22:43;;;;;;;8.57;4.65;;;;;;;;;;5034534;28;20046;-78
2023/08/08 03:25:10;;;;;;;12.32;4.75;;;;;;;;;;5031910;28;20041;-78
2023/08/08 03:27:36;;;;;;;12.52;5.38;;;;;;;;;;5029529;28;20517;-78
2023/08/08 03:30:02;;;;;;;9.60;4.70;;;;;;;;;;5034409;28;20119;-78
2023/08/08 03:32:29;;;;;;;10.43;4.57;;;;;;;;;;5035326;28;20053;-78
2023/08/08 03:34:55;;;;;;;12.38;4.80;;;;;;;;;;5035905;28;20041;-78
2023/08/08 03:37:21;;;;;;;11.18;4.90;;;;;;;;;;5033136;28;20041;-78
2023/08/08 03:39:47;;;;;;;8.68;4.78;;;;;;;;;;5020360;28;20076;-79
2023/08/08 03:42:14;;;;;;;10.32;5.40;;;;;;;;;;5030309;28;20033;-78
2023/08/08 03:44:40;;;;;;;12.23;5.20;;;;;;;;;;5033062;28;20049;-78
2023/08/08 03:47:07;;;;;;;10.80;4.93;;;;;;;;;;5036687;28;20103;-79
2023/08/08 03:49:33;;;;;;;13.57;5.45;;;;;;;;;;5036536;28;20045;-78
2023/08/08 03:51:59;;;;;;;15.80;5.53;;;;;;;;;;5030887;28;20412;-78
2023/08/08 03:54:25;;;;;;;13.27;4.75;;;;;;;;;;5034882;28;20049;-78
2023/08/08 03:56:51;;;;;;;10.57;5.00;;;;;;;;;;5034878;28;20049;-78
2023/08/08 03:59:17;;;;;;;9.82;5.00;;;;;;;;;;5033998;28;20165;-78
2023/08/08 04:01:44;;;;;;;9.00;4.45;;;;;;;;;;5033968;28;20543;-78
2023/08/08 04:04:10;;;;;;;12.75;4.80;;;;;;;;;;5034686;28;20045;-78
2023/08/08 04:06:36;;;;;;;11.07;4.72;;;;;;;;;;5032619;28;20056;-78
2023/08/08 04:09:02;;;;;;;11.75;4.40;;;;;;;;;;5031741;28;20076;-78
2023/08/08 04:11:28;;;;;;;10.40;4.38;;;;;;;;;;5033846;28;20109;-77
2023/08/08 04:13:54;;;;;;;12.00;3.90;;;;;;;;;;5032697;28;20100;-78
2023/08/08 04:16:20;;;;;;;11.68;4.05;;;;;;;;;;5029469;28;20404;-77
2023/08/08 04:18:46;;;;;;;10.93;3.70;;;;;;;;;;5029179;28;20045;-77
2023/08/08 04:21:12;;;;;;;9.90;4.20;;;;;;;;;;5033399;28;20054;-78
2023/08/08 04:23:38;;;;;;;12.35;3.92;;;;;;;;;;5036094;28;20045;-78
2023/08/08 04:26:04;;;;;;;12.07;3.58;;;;;;;;;;5036480;28;20064;-79
2023/08/08 04:28:31;;;;;;;11.25;3.50;;;;;;;;;;5036647;28;20045;-79
2023/08/08 04:30:57;;;;;;;9.40;3.47;;;;;;;;;;5030691;28;20038;-79
2023/08/08 04:33:23;;;;;;;11.38;3.70;;;;;;;;;;5025328;28;20197;-77
2023/08/08 04:35:49;;;;;;;11.75;3.55;;;;;;;;;;5032420;28;20053;-78
2023/08/08 04:38:15;;;;;;;7.72;3.00;;;;;;;;;;5032554;28;20042;-78
2023/08/08 04:40:42;;;;;;;11.88;3.35;;;;;;;;;;5032570;28;20111;-78
2023/08/08 04:43:08;;;;;;;11.88;3.25;;;;;;;;;;5033248;28;20037;-78
2023/08/08 04:45:34;;;;;;;9.73;3.28;;;;;;;;;;5032625;28;20086;-78
2023/08/08 04:48:00;;;;;;;9.18;2.80;;;;;;;;;;5021983;28;20038;-78
2023/08/08 04:50:26;;;;;;;8.40;2.55;;;;;;;;;;5026220;28;20046;-78
2023/08/08 04:52:52;;;;;;;9.77;2.60;;;;;;;;;;5040125;28;20054;-79
2023/08/08 04:55:19;;;;;;;12.48;2.92;;;;;;;;;;5038649;28;20044;-78
2023/08/08 04:57:45;;;;;;;8.73;2.40;;;;;;;;;;5033432;28;20099;-78
2023/08/08 05:00:11;;;;;;;9.73;2.63;;;;;;;;;;5033282;28;20046;-77
2023/08/08 05:02:39;;;;;;;9.27;2.45;;;;;;;;;;5033909;28;20049;-78
2023/08/08 05:05:05;;;;;;;8.40;2.47;;;;;;;;;;5033398;28;20083;-78
2023/08/08 05:07:32;;;;;;;9.45;2.50;;;;;;;;;;5034714;28;20038;-79
2023/08/08 05:09:58;;;;;;;10.07;2.22;;;;;;;;;;5036305;28;20095;-79
2023/08/08 05:12:24;;;;;;;7.45;2.40;;;;;;;;;;5034844;28;20122;-78
2023/08/08 05:14:50;;;;;;;9.43;2.28;;;;;;;;;;5035997;28;20141;-79
2023/08/08 05:17:17;;;;;;;9.82;2.30;;;;;;;;;;5033248;28;20083;-78
2023/08/08 05:19:43;;;;;;;11.18;2.40;;;;;;;;;;5034971;28;20049;-79
2023/08/08 05:22:09;;;;;;;11.23;2.38;;;;;;;;;;5035203;28;20105;-79
2023/08/08 05:24:35;;;;;;;6.68;1.88;;;;;;;;;;5036412;28;20052;-78
2023/08/08 05:27:03;;;;;;;9.85;2.80;;;;;;;;;;5036333;28;20049;-79
2023/08/08 05:29:29;;;;;;;9.18;2.13;;;;;;;;;;5034809;28;20045;-79
2023/08/08 05:31:55;;;;;;;10.13;2.22;;;;;;;;;;5036350;28;20045;-79
2023/08/08 05:34:22;;;;;;;9.82;2.00;;;;;;;;;;5032640;28;20103;-78
2023/08/08 05:36:48;;;;;;;8.43;2.17;;;;;;;;;;5033956;28;20045;-78
2023/08/08 05:39:14;;;;;;;8.70;2.03;;;;;;;;;;5031305;28;20038;-79
2023/08/08 05:41:40;;;;;;;10.73;2.20;;;;;;;;;;5024530;28;20113;-78
2023/08/08 05:44:06;;;;;;;7.40;1.77;;;;;;;;;;5021656;28;20080;-78
2023/08/08 05:46:32;;;;;;;9.57;1.80;;;;;;;;;;5032999;28;20044;-79
2023/08/08 05:48:58;;;;;;;8.90;2.05;;;;;;;;;;5027238;28;20041;-79
2023/08/08 05:51:25;;;;;;;6.05;1.60;;;;;;;;;;5029970;28;20048;-78
2023/08/08 05:53:51;;;;;;;9.48;1.55;;;;;;;;;;5033916;28;20037;-79
2023/08/08 05:56:17;;;;;;;10.10;1.70;;;;;;;;;;5035821;28;20065;-78
2023/08/08 05:58:44;;;;;;;7.28;1.50;;;;;;;;;;5031753;28;20049;-79
2023/08/08 06:01:11;;;;;;;6.78;1.40;;;;;;;;;;5032132;28;20062;-79
2023/08/08 06:03:37;;;;;;;6.63;1.70;;;;;;;;;;5031176;28;20132;-78
2023/08/08 06:06:05;;;;;;;7.43;1.40;;;;;;;;;;5032418;28;20045;-78
2023/08/08 06:08:31;;;;;;;7.57;1.42;;;;;;;;;;5032744;28;20057;-79
2023/08/08 06:10:57;;;;;;;7.32;1.38;;;;;;;;;;5033810;28;20479;-79
2023/08/08 06:13:24;;;;;;;6.97;1.58;;;;;;;;;;5010569;28;20049;-79
2023/08/08 06:15:50;;;;;;;6.88;1.40;;;;;;;;;;5034409;28;20053;-80
2023/08/08 06:18:17;;;;;;;6.80;1.35;;;;;;;;;;5035106;28;20056;-80
2023/08/08 06:20:43;;;;;;;7.72;1.25;;;;;;;;;;5035507;28;20072;-79
2023/08/08 06:23:10;;;;;;;7.53;1.70;;;;;;;;;;5034854;28;20398;-80
2023/08/08 06:25:38;;;;;;;7.82;1.55;;;;;;;;;;5033895;28;20053;-80
2023/08/08 06:28:04;;;;;;;5.97;1.30;;;;;;;;;;5033675;28;20056;-80
2023/08/08 06:30:30;;;;;;;5.93;1.52;;;;;;;;;;5033405;28;20045;-80
2023/08/08 06:32:56;;;;;;;6.57;1.23;;;;;;;;;;5034118;28;20458;-80
2023/08/08 06:35:23;;;;;;;6.80;1.40;;;;;;;;;;5026090;28;20046;-80
2023/08/08 06:37:49;;;;;;;7.38;1.40;;;;;;;;;;5029571;28;20136;-80
2023/08/08 06:40:15;;;;;;;6.28;1.65;;;;;;;;;;5035346;28;20050;-81
2023/08/08 06:42:41;;;;;;;7.72;1.65;;;;;;;;;;5032472;28;20042;-82
2023/08/08 06:45:07;;;;;;;7.55;1.40;;;;;;;;;;5034984;28;20046;-80
2023/08/08 06:47:33;;;;;;;5.80;1.13;;;;;;;;;;5033798;28;20046;-80
2023/08/08 06:49:59;;;;;;;6.43;1.55;;;;;;;;;;5034227;28;20073;-80
2023/08/08 06:52:25;;;;;;;7.57;1.23;;;;;;;;;;5034878;28;20101;-80
2023/08/08 06:54:51;;;;;;;7.60;1.40;;;;;;;;;;5038428;28;20053;-80
2023/08/08 06:57:17;;;;;;;8.63;1.52;;;;;;;;;;5038291;28;20045;-81
2023/08/08 06:59:43;;;;;;;8.02;1.50;;;;;;;;;;5035856;28;20081;-80
2023/08/08 07:02:10;;;;;;;7.20;1.23;;;;;;;;;;5038300;28;20124;-81
2023/08/08 07:04:36;;;;;;;6.53;1.25;;;;;;;;;;5037272;28;20045;-80
2023/08/08 07:07:02;;;;;;;8.52;1.50;;;;;;;;;;5034396;28;20091;-77
2023/08/08 07:09:28;;;;;;;6.57;1.45;;;;;;;;;;5031724;28;20484;-78
2023/08/08 07:11:54;;;;;;;6.65;1.10;;;;;;;;;;5033026;28;20057;-78
2023/08/08 07:14:20;;;;;;;5.00;1.38;;;;;;;;;;5031040;28;20132;-77
2023/08/08 07:16:48;;;;;;;9.02;1.63;;;;;;;;;;5031630;28;20045;-77
2023/08/08 07:19:15;;;;;;;5.88;1.50;;;;;;;;;;5033369;28;20065;-76
2023/08/08 07:21:41;;;;;;;9.45;1.63;;;;;;;;;;5031892;28;20129;-77
2023/08/08 07:24:08;;;;;;;6.93;1.58;;;;;;;;;;5037655;28;20037;-77
2023/08/08 07:26:34;;;;;;;6.63;1.40;;;;;;;;;;5035147;28;20049;-77
2023/08/08 07:29:00;;;;;;;7.03;1.23;;;;;;;;;;5036770;28;20055;-77
2023/08/08 07:31:26;;;;;;;6.55;1.17;;;;;;;;;;5034791;28;20091;-77
2023/08/08 07:33:52;;;;;;;6.18;1.05;;;;;;;;;;5035847;28;20128;-77
2023/08/08 07:36:18;;;;;;;7.57;1.83;;;;;;;;;;5035541;28;20034;-78
2023/08/08 07:38:44;;;;;;;5.88;1.10;;;;;;;;;;5036575;28;20120;-78
2023/08/08 07:41:10;;;;;;;4.82;1.10;;;;;;;;;;5035258;28;20071;-78
2023/08/08 07:43:36;;;;;;;10.18;1.50;;;;;;;;;;5036326;28;20531;-77
2023/08/08 07:46:02;;;;;;;7.53;1.23;;;;;;;;;;5035986;28;20451;-76
2023/08/08 07:48:28;;;;;;;6.70;1.20;;;;;;;;;;5034228;28;20106;-77
2023/08/08 07:50:54;;;;;;;8.60;1.40;;;;;;;;;;5035823;28;20048;-77
2023/08/08 07:53:20;;;;;;;3.95;1.00;;;;;;;;;;5033609;28;20110;-79
2023/08/08 07:55:47;;;;;;;8.02;1.20;;;;;;;;;;5035344;28;20552;-77
2023/08/08 07:58:13;;;;;;;8.45;1.15;;;;;;;;;;5031295;28;20055;-78
2023/08/08 08:00:39;;;;;;;5.15;1.10;;;;;;;;;;5035908;28;20054;-78
2023/08/08 08:03:05;;;;;;;7.57;1.40;;;;;;;;;;5035168;28;20045;-78
2023/08/08 08:05:32;;;;;;;6.47;1.35;;;;;;;;;;5028314;28;20046;-77
2023/08/08 08:07:58;;;;;;;5.35;0.90;;;;;;;;;;5028515;28;20053;-77
2023/08/08 08:10:24;;;;;;;5.35;1.10;;;;;;;;;;5031434;28;20124;-77
2023/08/08 08:12:57;;;;;;;5.95;0.90;;;;;;;;;;5034885;28;20096;-77
2023/08/08 08:15:23;;;;;;;8.48;1.10;;;;;;;;;;5034016;28;20084;-76
2023/08/08 08:17:49;;;;;;;6.20;1.30;;;;;;;;;;5034268;28;20377;-77
2023/08/08 08:20:15;;;;;;;6.28;0.80;;;;;;;;;;5033018;28;20041;-78
2023/08/08 08:22:42;;;;;;;6.25;1.13;;;;;;;;;;5034795;28;20040;-78
2023/08/08 08:25:09;;;;;;;4.78;0.90;;;;;;;;;;5026198;28;20364;-77
2023/08/08 08:27:36;;;;;;;5.68;0.90;;;;;;;;;;5031477;28;20057;-77
2023/08/08 08:30:03;;;;;;;5.82;1.02;;;;;;;;;;5034574;28;20084;-78
2023/08/08 08:32:32;;;;;;;5.53;0.95;;;;;;;;;;5035240;28;20084;-77
2023/08/08 08:34:58;;;;;;;6.45;1.15;;;;;;;;;;5034860;28;20488;-78
2023/08/08 08:37:24;;;;;;;9.15;1.30;;;;;;;;;;5034757;28;20095;-77
2023/08/08 08:39:50;;;;;;;7.90;0.93;;;;;;;;;;5034374;28;20045;-77
2023/08/08 08:42:16;;;;;;;5.18;0.90;;;;;;;;;;5033474;28;20500;-77
2023/08/08 08:44:43;;;;;;;4.55;0.80;;;;;;;;;;5032303;28;20102;-77
2023/08/08 08:47:13;;;;;;;6.13;1.10;;;;;;;;;;5034145;28;20115;-77
2023/08/08 08:49:39;;;;;;;6.95;1.20;;;;;;;;;;5033097;28;20053;-77
2023/08/08 08:52:05;;;;;;;5.65;0.85;;;;;;;;;;5033697;28;20046;-77
2023/08/08 08:54:32;;;;;;;6.13;1.08;;;;;;;;;;5034188;28;20435;-77
2023/08/08 08:56:59;;;;;;;3.97;0.85;;;;;;;;;;5033689;28;20133;-77
2023/08/08 08:59:25;;;;;;;6.07;1.35;;;;;;;;;;5033698;28;20057;-78
2023/08/08 09:01:51;;;;;;;5.40;1.05;;;;;;;;;;5033155;28;20072;-76
2023/08/08 09:04:19;;;;;;;7.28;1.23;;;;;;;;;;5032197;28;20060;-76
2023/08/08 09:06:47;;;;;;;6.63;1.25;;;;;;;;;;5034042;28;20092;-77
2023/08/08 09:09:15;;;;;;;9.00;1.50;;;;;;;;;;5033490;28;20094;-77
2023/08/08 09:11:43;;;;;;;5.97;1.10;;;;;;;;;;5031995;28;20077;-77
2023/08/08 09:14:18;;;;;;;6.00;1.25;;;;;;;;;;5030801;28;20657;-77
2023/08/08 09:16:44;;;;;;;7.40;1.10;;;;;;;;;;5032376;28;20045;-78
2023/08/08 09:19:10;;;;;;;8.13;1.20;;;;;;;;;;5033711;28;20396;-78
2023/08/08 09:21:36;;;;;;;6.90;1.35;;;;;;;;;;5016924;28;20046;-77
2023/08/08 09:24:02;;;;;;;6.07;1.17;;;;;;;;;;5029543;28;20060;-78
2023/08/08 09:26:29;;;;;;;5.65;1.20;;;;;;;;;;5028308;28;20099;-78
2023/08/08 09:28:55;;;;;;;5.88;1.10;;;;;;;;;;5032893;28;20041;-77
2023/08/08 09:31:21;;;;;;;5.03;1.17;;;;;;;;;;5033473;28;20053;-78
2023/08/08 09:33:48;;;;;;;5.47;1.25;;;;;;;;;;5032023;28;20123;-77
2023/08/08 09:36:15;;;;;;;8.60;1.73;;;;;;;;;;5032945;28;20061;-77
2023/08/08 09:38:41;;;;;;;7.97;1.52;;;;;;;;;;5032341;28;20049;-78
2023/08/08 09:41:08;;;;;;;5.75;1.05;;;;;;;;;;5032945;28;20052;-77
2023/08/08 09:43:34;;;;;;;6.63;1.10;;;;;;;;;;5029645;28;20449;-77
2023/08/08 09:46:00;;;;;;;8.80;1.30;;;;;;;;;;5031427;28;20060;-78
2023/08/08 09:48:31;;;;;;;5.78;1.00;;;;;;;;;;5032178;28;20080;-77
2023/08/08 09:51:02;;;;;;;4.90;1.10;;;;;;;;;;5032809;28;20161;-77
2023/08/08 09:53:29;;;;;;;7.28;1.38;;;;;;;;;;5030170;28;20088;-78
2023/08/08 09:55:55;;;;;;;5.95;1.30;;;;;;;;;;5032713;28;20111;-77
2023/08/08 09:58:22;;;;;;;7.28;1.20;;;;;;;;;;5027730;28;21331;-77
2023/08/08 10:00:51;;;;;;;5.28;1.10;;;;;;;;;;5030749;28;20050;-76
2023/08/08 10:03:18;;;;;;;4.18;0.85;;;;;;;;;;5030035;28;20041;-76
2023/08/08 10:05:44;;;;;;;6.88;1.85;;;;;;;;;;5029102;28;20380;-76
2023/08/08 10:08:10;;;;;;;6.80;1.33;;;;;;;;;;5029478;28;20041;-77
2023/08/08 10:10:37;;;;;;;5.85;1.10;;;;;;;;;;5031502;28;20045;-76
2023/08/08 10:13:06;;;;;;;5.22;1.00;;;;;;;;;;5032471;28;20136;-76
2023/08/08 10:15:32;;;;;;;5.32;1.23;;;;;;;;;;5031779;28;20376;-77
2023/08/08 10:17:59;;;;;;;5.80;1.00;;;;;;;;;;5032113;28;20049;-77
2023/08/08 10:20:25;;;;;;;5.18;1.10;;;;;;;;;;5032611;28;20041;-77
2023/08/08 10:22:54;;;;;;;6.95;1.48;;;;;;;;;;5030672;28;20050;-77
2023/08/08 10:25:20;;;;;;;7.32;1.20;;;;;;;;;;5032639;28;20061;-76
2023/08/08 10:27:47;;;;;;;8.00;1.38;;;;;;;;;;5032284;28;20060;-78
2023/08/08 10:30:14;;;;;;;8.30;1.30;;;;;;;;;;5031565;28;20072;-77
2023/08/08 10:32:44;;;;;;;5.57;1.02;;;;;;;;;;5032427;28;20067;-77
2023/08/08 10:35:11;;;;;;;8.00;1.00;;;;;;;;;;5015056;28;20089;-77
2023/08/08 10:37:37;;;;;;;6.28;1.20;;;;;;;;;;5031618;28;20101;-78
2023/08/08 10:40:07;;;;;;;4.53;1.00;;;;;;;;;;5033591;28;20128;-77
2023/08/08 10:42:34;;;;;;;7.22;1.48;;;;;;;;;;5032010;28;20483;-77
2023/08/08 10:45:00;;;;;;;6.80;1.30;;;;;;;;;;5031752;28;20041;-77
2023/08/08 10:47:30;;;;;;;4.85;1.10;;;;;;;;;;5030245;28;20045;-77
2023/08/08 10:50:17;;;;;;;6.55;1.10;;;;;;;;;;5032319;28;20056;-76
2023/08/08 10:52:52;;;;;;;7.13;1.63;;;;;;;;;;5034107;28;20052;-76
2023/08/08 10:55:19;;;;;;;4.93;1.05;;;;;;;;;;5036351;28;20061;-76
2023/08/08 10:57:53;;;;;;;7.88;1.20;;;;;;;;;;5032325;28;20049;-75
2023/08/08 11:00:19;;;;;;;7.25;1.20;;;;;;;;;;5034831;28;20049;-77
2023/08/08 11:02:46;;;;;;;4.80;1.08;;;;;;;;;;5032610;28;20037;-79
2023/08/08 11:05:12;;;;;;;7.63;1.10;;;;;;;;;;5031713;28;20104;-76
2023/08/08 11:07:38;;;;;;;4.15;0.90;;;;;;;;;;5030041;28;20097;-77
2023/08/08 11:10:05;;;;;;;6.60;1.33;;;;;;;;;;5030279;28;20052;-76
2023/08/08 11:12:31;;;;;;;4.82;1.08;;;;;;;;;;5029787;28;20061;-76
2023/08/08 11:14:57;;;;;;;6.18;1.17;;;;;;;;;;5034380;28;20132;-77
2023/08/08 11:17:23;;;;;;;8.13;1.35;;;;;;;;;;5031177;28;20496;-77
2023/08/08 11:19:50;;;;;;;7.03;1.10;;;;;;;;;;5027635;28;20053;-77
2023/08/08 11:22:17;;;;;;;5.53;1.10;;;;;;;;;;5029464;28;20053;-77
2023/08/08 11:24:43;;;;;;;4.97;1.13;;;;;;;;;;5035354;28;20456;-76
2023/08/08 11:27:09;;;;;;;6.60;1.42;;;;;;;;;;5033500;28;20033;-76
2023/08/08 11:29:35;;;;;;;6.85;1.20;;;;;;;;;;5035268;28;20049;-78
2023/08/08 11:32:02;;;;;;;5.80;1.13;;;;;;;;;;5034459;28;20922;-76
2023/08/08 11:34:30;;;;;;;6.70;1.10;;;;;;;;;;5031490;28;20419;-76
2023/08/08 11:36:58;;;;;;;5.15;1.13;;;;;;;;;;5022733;28;20538;-76
2023/08/08 11:39:24;;;;;;;4.65;1.30;;;;;;;;;;5026693;28;20404;-76
2023/08/08 11:41:50;;;;;;;6.53;1.48;;;;;;;;;;5029503;28;20045;-78
2023/08/08 11:44:17;;;;;;;5.43;1.33;;;;;;;;;;5028042;28;20037;-77
2023/08/08 11:46:45;;;;;;;5.95;1.15;;;;;;;;;;5028345;28;20111;-76
2023/08/08 11:49:11;;;;;;;7.75;1.50;;;;;;;;;;5028758;28;20049;-78
2023/08/08 11:51:37;;;;;;;5.25;1.38;;;;;;;;;;5026573;28;20493;-77
2023/08/08 11:54:04;;;;;;;3.97;0.90;;;;;;;;;;5028882;28;20041;-77
2023/08/08 11:56:33;;;;;;;6.90;1.23;;;;;;;;;;5027202;28;20037;-77
2023/08/08 11:58:59;;;;;;;7.93;1.10;;;;;;;;;;5027418;28;20112;-77
2023/08/08 12:01:27;;;;;;;7.88;1.35;;;;;;;;;;5026988;28;20057;-76
2023/08/08 12:03:54;;;;;;;3.45;0.95;;;;;;;;;;5031990;28;20093;-76
2023/08/08 12:06:20;;;;;;;5.32;1.17;;;;;;;;;;5026887;28;20105;-77
2023/08/08 12:08:47;;;;;;;5.15;1.30;;;;;;;;;;5027056;28;20053;-77
2023/08/08 12:11:13;;;;;;;5.13;1.08;;;;;;;;;;5027680;28;20083;-77
2023/08/08 12:13:41;;;;;;;6.15;1.20;;;;;;;;;;5027508;28;20527;-78
2023/08/08 12:16:08;;;;;;;4.25;0.80;;;;;;;;;;5026508;28;20128;-77
2023/08/08 12:18:35;;;;;;;4.45;1.20;;;;;;;;;;5030088;28;20092;-76
2023/08/08 12:21:01;;;;;;;5.45;1.20;;;;;;;;;;5028425;28;20441;-77
2023/08/08 12:23:27;;;;;;;5.05;1.10;;;;;;;;;;5030120;28;20061;-76
2023/08/08 12:25:54;;;;;;;7.93;1.40;;;;;;;;;;5032016;28;20379;-77
2023/08/08 12:28:20;;;;;;;6.65;1.60;;;;;;;;;;5028476;28;20053;-77
2023/08/08 12:30:46;;;;;;;9.98;1.33;;;;;;;;;;5027384;28;20459;-76
2023/08/08 12:33:12;;;;;;;6.70;1.33;;;;;;;;;;5025479;28;20135;-78
2023/08/08 12:35:39;;;;;;;7.63;1.00;;;;;;;;;;5027635;28;20399;-77
2023/08/08 12:38:05;;;;;;;6.45;1.42;;;;;;;;;;5026212;28;20041;-78
2023/08/08 12:40:31;;;;;;;6.32;1.42;;;;;;;;;;5027167;28;20042;-77
2023/08/08 12:42:57;;;;;;;7.30;1.25;;;;;;;;;;5024826;28;20057;-78
2023/08/08 12:45:23;;;;;;;6.07;1.20;;;;;;;;;;5026368;28;20413;-76
2023/08/08 12:47:49;;;;;;;6.70;1.17;;;;;;;;;;5026080;28;20045;-77
2023/08/08 12:50:16;;;;;;;5.32;1.20;;;;;;;;;;5026719;28;20052;-77
2023/08/08 12:52:42;;;;;;;5.00;0.98;;;;;;;;;;5024701;28;20522;-76
2023/08/08 12:55:09;;;;;;;5.97;1.13;;;;;;;;;;5027103;28;20045;-76
2023/08/08 12:57:35;;;;;;;5.22;0.88;;;;;;;;;;5026145;28;20128;-76
2023/08/08 13:00:01;;;;;;;6.72;1.23;;;;;;;;;;5027486;28;20049;-76
2023/08/08 13:02:27;;;;;;;4.50;0.82;;;;;;;;;;5028026;28;20053;-76
2023/08/08 13:04:53;;;;;;;5.03;0.88;;;;;;;;;;5027175;28;20408;-76
2023/08/08 13:07:19;;;;;;;5.22;0.80;;;;;;;;;;5027588;28;20084;-77
2023/08/08 13:09:46;;;;;;;6.43;0.70;;;;;;;;;;5026403;28;20045;-78
2023/08/08 13:12:12;;;;;;;4.35;0.98;;;;;;;;;;5026661;28;20053;-77
2023/08/08 13:14:38;;;;;;;5.75;1.17;;;;;;;;;;5025593;28;20049;-77
2023/08/08 13:17:04;;;;;;;6.13;1.17;;;;;;;;;;5027052;28;20050;-77
2023/08/08 13:19:30;;;;;;;8.25;1.33;;;;;;;;;;5028235;28;20041;-77
2023/08/08 13:21:56;;;;;;;5.78;1.15;;;;;;;;;;5033333;28;20045;-76
2023/08/08 13:24:23;;;;;;;6.65;0.93;;;;;;;;;;5031692;28;20046;-77
2023/08/08 13:26:49;;;;;;;7.20;1.17;;;;;;;;;;5042594;28;20053;-77
2023/08/08 13:29:15;;;;;;;6.57;1.50;;;;;;;;;;5042385;28;20045;-76
2023/08/08 13:31:41;;;;;;;7.05;1.13;;;;;;;;;;5039710;28;20318;-76
2023/08/08 13:34:08;;;;;;;6.47;1.35;;;;;;;;;;5018580;28;20142;-77
2023/08/08 13:36:34;;;;;;;5.78;1.38;;;;;;;;;;5027614;28;20041;-77
2023/08/08 13:39:00;;;;;;;5.30;1.15;;;;;;;;;;5031354;28;20084;-77
2023/08/08 13:41:26;;;;;;;5.72;1.50;;;;;;;;;;5029803;28;20488;-77
2023/08/08 13:43:52;;;;;;;3.13;0.80;;;;;;;;;;5025378;28;20059;-78
2023/08/08 13:46:18;;;;;;;5.05;1.02;;;;;;;;;;5025427;28;20062;-77
2023/08/08 13:48:44;;;;;;;6.68;1.30;;;;;;;;;;5024016;28;20053;-78
2023/08/08 13:51:11;;;;;;;6.32;1.30;;;;;;;;;;5026560;28;20041;-77
2023/08/08 13:53:37;;;;;;;6.57;1.35;;;;;;;;;;5024793;28;20095;-78
2023/08/08 13:56:03;;;;;;;8.23;1.17;;;;;;;;;;5026670;28;20040;-78
2023/08/08 13:58:29;;;;;;;6.03;1.13;;;;;;;;;;5026619;28;20037;-77
2023/08/08 14:00:56;;;;;;;4.22;0.90;;;;;;;;;;5027339;28;20045;-78
2023/08/08 14:03:23;;;;;;;5.45;1.30;;;;;;;;;;5023955;28;20049;-77
2023/08/08 14:05:52;;;;;;;6.28;1.17;;;;;;;;;;5026962;28;20511;-78
2023/08/08 14:08:18;;;;;;;7.28;1.20;;;;;;;;;;5025949;28;20045;-76
2023/08/08 14:10:44;;;;;;;5.82;1.10;;;;;;;;;;5025183;28;20046;-78
2023/08/08 14:13:11;;;;;;;5.75;1.20;;;;;;;;;;5025502;28;20054;-77
2023/08/08 14:15:37;;;;;;;8.48;1.38;;;;;;;;;;5025193;28;20053;-76
2023/08/08 14:18:03;;;;;;;7.05;1.10;;;;;;;;;;5028171;28;20037;-77
2023/08/08 14:20:30;;;;;;;7.47;1.25;;;;;;;;;;5029732;28;20075;-76
2023/08/08 14:22:57;;;;;;;5.30;1.00;;;;;;;;;;5025447;28;20111;-78
2023/08/08 14:25:23;;;;;;;4.68;0.90;;;;;;;;;;5027777;28;20045;-75
2023/08/08 14:27:49;;;;;;;5.10;1.00;;;;;;;;;;5032421;28;20049;-76
2023/08/08 14:30:15;;;;;;;10.30;1.00;;;;;;;;;;5030610;28;20091;-75
2023/08/08 14:32:41;;;;;;;4.80;0.95;;;;;;;;;;5032766;28;20041;-78
2023/08/08 14:35:08;;;;;;;4.35;1.00;;;;;;;;;;5032123;28;20099;-73
2023/08/08 14:37:35;;;;;;;4.78;1.40;;;;;;;;;;5028994;28;20041;-74